sensor_id;sensor_type;location;lat;lon;timestamp;pressure;altitude;pressure_sealevel;temperature;humidity
58955;BME280;45815;52.334;5.024;2023-04-25T00:00:29;101117.66;;;7.32;100.00
58955;BME280;45815;52.334;5.024;2023-04-25T00:02:54;101119.34;;;7.30;100.00
58955;BME280;45815;52.334;5.024;2023-04-25T00:05:22;101121.22;;;7.34;100.00
58955;BME280;45815;52.334;5.024;2023-04-25T00:07:49;101121.22;;;7.34;100.00
58955;BME280;45815;52.334;5.024;2023-04-25T00:10:15;101117.84;;;7.37;100.00
58955;BME280;45815;52.334;5.024;2023-04-25T00:12:41;101114.44;;;7.39;100.00
58955;BME280;45815;52.334;5.024;2023-04-25T00:15:07;101113.72;;;7.44;100.00
58955;BME280;45815;52.334;5.024;2023-04-25T00:17:33;101116.13;;;7.37;100.00
58955;BME280;45815;52.334;5.024;2023-04-25T00:20:00;101121.13;;;7.31;100.00
58955;BME280;45815;52.334;5.024;2023-04-25T00:22:26;101127.31;;;7.33;100.00
58955;BME280;45815;52.334;5.024;2023-04-25T00:24:51;101122.88;;;7.32;100.00
58955;BME280;45815;52.334;5.024;2023-04-25T00:27:18;101129.06;;;7.34;100.00
58955;BME280;45815;52.334;5.024;2023-04-25T00:29:44;101119.66;;;7.39;100.00
58955;BME280;45815;52.334;5.024;2023-04-25T00:32:10;101121.38;;;7.37;100.00
58955;BME280;45815;52.334;5.024;2023-04-25T00:34:35;101124.78;;;7.36;100.00
58955;BME280;45815;52.334;5.024;2023-04-25T00:37:01;101137.50;;;7.27;100.00
58955;BME280;45815;52.334;5.024;2023-04-25T00:39:29;101129.41;;;7.19;100.00
58955;BME280;45815;52.334;5.024;2023-04-25T00:41:55;101136.09;;;7.13;100.00
58955;BME280;45815;52.334;5.024;2023-04-25T00:44:22;101138.66;;;7.11;100.00
58955;BME280;45815;52.334;5.024;2023-04-25T00:46:48;101132.44;;;7.08;100.00
58955;BME280;45815;52.334;5.024;2023-04-25T00:49:14;101140.97;;;7.04;100.00
58955;BME280;45815;52.334;5.024;2023-04-25T00:51:43;101138.28;;;7.02;100.00
58955;BME280;45815;52.334;5.024;2023-04-25T00:54:11;101133.03;;;7.01;100.00
58955;BME280;45815;52.334;5.024;2023-04-25T00:56:37;101134.09;;;7.06;100.00
58955;BME280;45815;52.334;5.024;2023-04-25T00:59:03;101143.50;;;7.02;100.00
58955;BME280;45815;52.334;5.024;2023-04-25T01:01:30;101142.69;;;7.03;100.00
58955;BME280;45815;52.334;5.024;2023-04-25T01:03:58;101141.69;;;7.00;100.00
58955;BME280;45815;52.334;5.024;2023-04-25T01:06:24;101138.84;;;6.93;100.00
58955;BME280;45815;52.334;5.024;2023-04-25T01:08:49;101142.06;;;6.86;100.00
58955;BME280;45815;52.334;5.024;2023-04-25T01:11:16;101142.06;;;6.86;100.00
58955;BME280;45815;52.334;5.024;2023-04-25T01:13:41;101138.50;;;6.84;100.00
58955;BME280;45815;52.334;5.024;2023-04-25T01:16:07;101138.50;;;6.84;100.00
58955;BME280;45815;52.334;5.024;2023-04-25T01:18:33;101146.38;;;6.86;100.00
58955;BME280;45815;52.334;5.024;2023-04-25T01:21:07;101152.34;;;6.83;100.00
58955;BME280;45815;52.334;5.024;2023-04-25T01:23:34;101158.66;;;6.88;100.00
58955;BME280;45815;52.334;5.024;2023-04-25T01:26:00;101150.94;;;6.91;100.00
58955;BME280;45815;52.334;5.024;2023-04-25T01:28:27;101153.59;;;6.93;100.00
58955;BME280;45815;52.334;5.024;2023-04-25T01:30:52;101150.84;;;6.88;100.00
58955;BME280;45815;52.334;5.024;2023-04-25T01:33:20;101165.75;;;6.92;100.00
58955;BME280;45815;52.334;5.024;2023-04-25T01:35:46;101165.75;;;6.92;100.00
58955;BME280;45815;52.334;5.024;2023-04-25T01:38:13;101163.28;;;6.95;100.00
58955;BME280;45815;52.334;5.024;2023-04-25T01:40:40;101156.16;;;6.91;100.00
58955;BME280;45815;52.334;5.024;2023-04-25T01:43:07;101156.97;;;6.90;100.00
58955;BME280;45815;52.334;5.024;2023-04-25T01:45:37;101162.88;;;6.85;100.00
58955;BME280;45815;52.334;5.024;2023-04-25T01:48:04;101165.47;;;6.85;100.00
58955;BME280;45815;52.334;5.024;2023-04-25T01:50:30;101162.78;;;6.83;100.00
58955;BME280;45815;52.334;5.024;2023-04-25T01:52:56;101165.38;;;6.82;100.00
58955;BME280;45815;52.334;5.024;2023-04-25T01:55:22;101173.22;;;6.83;100.00
58955;BME280;45815;52.334;5.024;2023-04-25T01:58:02;101171.56;;;6.85;100.00
58955;BME280;45815;52.334;5.024;2023-04-25T02:00:52;101178.44;;;6.83;100.00
58955;BME280;45815;52.334;5.024;2023-04-25T02:03:17;101178.22;;;6.77;100.00
58955;BME280;45815;52.334;5.024;2023-04-25T02:05:43;101180.88;;;6.79;100.00
58955;BME280;45815;52.334;5.024;2023-04-25T02:08:11;101178.25;;;6.79;100.00
58955;BME280;45815;52.334;5.024;2023-04-25T02:10:36;101177.50;;;6.81;100.00
58955;BME280;45815;52.334;5.024;2023-04-25T02:13:17;101178.44;;;6.83;100.00
58955;BME280;45815;52.334;5.024;2023-04-25T02:15:54;101175.97;;;6.86;100.00
58955;BME280;45815;52.334;5.024;2023-04-25T02:18:19;101180.25;;;6.84;100.00
58955;BME280;45815;52.334;5.024;2023-04-25T02:20:46;101174.66;;;6.75;100.00
58955;BME280;45815;52.334;5.024;2023-04-25T02:23:12;101164.13;;;6.72;100.00
58955;BME280;45815;52.334;5.024;2023-04-25T02:25:37;101177.44;;;6.80;100.00
58955;BME280;45815;52.334;5.024;2023-04-25T02:28:03;101173.88;;;6.78;100.00
58955;BME280;45815;52.334;5.024;2023-04-25T02:30:28;101173.97;;;6.79;100.00
58955;BME280;45815;52.334;5.024;2023-04-25T02:32:54;101181.78;;;6.79;100.00
58955;BME280;45815;52.334;5.024;2023-04-25T02:35:19;101178.34;;;6.80;100.00
58955;BME280;45815;52.334;5.024;2023-04-25T02:37:45;101180.75;;;6.75;100.00
58955;BME280;45815;52.334;5.024;2023-04-25T02:40:12;101185.91;;;6.74;100.00
58955;BME280;45815;52.334;5.024;2023-04-25T02:42:37;101192.97;;;6.76;100.00
58955;BME280;45815;52.334;5.024;2023-04-25T02:45:03;101188.50;;;6.74;100.00
58955;BME280;45815;52.334;5.024;2023-04-25T02:47:29;101203.47;;;6.78;100.00
58955;BME280;45815;52.334;5.024;2023-04-25T02:49:54;101196.41;;;6.75;100.00
58955;BME280;45815;52.334;5.024;2023-04-25T02:52:20;101197.94;;;6.70;100.00
58955;BME280;45815;52.334;5.024;2023-04-25T02:54:53;101200.69;;;6.73;100.00
58955;BME280;45815;52.334;5.024;2023-04-25T02:57:18;101197.28;;;6.76;100.00
58955;BME280;45815;52.334;5.024;2023-04-25T02:59:44;101197.56;;;6.82;100.00
58955;BME280;45815;52.334;5.024;2023-04-25T03:02:09;101183.44;;;6.77;100.00
58955;BME280;45815;52.334;5.024;2023-04-25T03:04:35;101179.88;;;6.75;100.00
58955;BME280;45815;52.334;5.024;2023-04-25T03:07:00;101191.38;;;6.80;100.00
58955;BME280;45815;52.334;5.024;2023-04-25T03:09:26;101194.84;;;6.79;100.00
58955;BME280;45815;52.334;5.024;2023-04-25T03:11:51;101182.31;;;6.70;100.00
58955;BME280;45815;52.334;5.024;2023-04-25T03:14:17;101194.84;;;6.79;100.00
58955;BME280;45815;52.334;5.024;2023-04-25T03:16:43;101202.00;;;6.85;100.00
58955;BME280;45815;52.334;5.024;2023-04-25T03:19:08;101197.66;;;6.85;100.00
58955;BME280;45815;52.334;5.024;2023-04-25T03:21:35;101205.25;;;6.79;100.00
58955;BME280;45815;52.334;5.024;2023-04-25T03:24:02;101217.47;;;6.80;100.00
58955;BME280;45815;52.334;5.024;2023-04-25T03:26:29;101211.88;;;6.71;100.00
58955;BME280;45815;52.334;5.024;2023-04-25T03:28:54;101212.72;;;6.70;100.00
58955;BME280;45815;52.334;5.024;2023-04-25T03:31:20;101215.00;;;6.62;100.00
58955;BME280;45815;52.334;5.024;2023-04-25T03:33:46;101221.25;;;6.66;100.00
58955;BME280;45815;52.334;5.024;2023-04-25T03:36:11;101216.16;;;6.48;100.00
58955;BME280;45815;52.334;5.024;2023-04-25T03:38:37;101228.88;;;6.40;100.00
58955;BME280;45815;52.334;5.024;2023-04-25T03:41:04;101226.06;;;6.36;100.00
58955;BME280;45815;52.334;5.024;2023-04-25T03:43:45;101227.41;;;6.26;100.00
58955;BME280;45815;52.334;5.024;2023-04-25T03:46:12;101223.00;;;6.25;100.00
58955;BME280;45815;52.334;5.024;2023-04-25T03:48:38;101232.09;;;6.13;100.00
58955;BME280;45815;52.334;5.024;2023-04-25T03:51:04;101239.91;;;6.13;100.00
58955;BME280;45815;52.334;5.024;2023-04-25T03:53:31;101228.44;;;6.10;100.00
58955;BME280;45815;52.334;5.024;2023-04-25T03:56:12;101227.56;;;6.09;100.00
58955;BME280;45815;52.334;5.024;2023-04-25T03:58:38;101231.13;;;6.11;100.00
58955;BME280;45815;52.334;5.024;2023-04-25T04:01:05;101231.13;;;6.11;100.00
58955;BME280;45815;52.334;5.024;2023-04-25T04:03:34;101226.94;;;6.15;100.00
58955;BME280;45815;52.334;5.024;2023-04-25T04:06:04;101232.78;;;6.09;100.00
58955;BME280;45815;52.334;5.024;2023-04-25T04:08:32;101246.00;;;6.14;100.00
58955;BME280;45815;52.334;5.024;2023-04-25T04:10:58;101237.31;;;6.13;100.00
58955;BME280;45815;52.334;5.024;2023-04-25T04:13:26;101246.22;;;6.19;100.00
58955;BME280;45815;52.334;5.024;2023-04-25T04:15:52;101243.72;;;6.22;100.00
58955;BME280;45815;52.334;5.024;2023-04-25T04:18:17;101242.00;;;6.22;100.00
58955;BME280;45815;52.334;5.024;2023-04-25T04:20:43;101256.06;;;6.26;100.00
58955;BME280;45815;52.334;5.024;2023-04-25T04:23:08;101258.69;;;6.26;100.00
58955;BME280;45815;52.334;5.024;2023-04-25T04:25:34;101273.25;;;6.21;100.00
58955;BME280;45815;52.334;5.024;2023-04-25T04:28:00;101281.66;;;6.15;100.00
58955;BME280;45815;52.334;5.024;2023-04-25T04:30:48;101280.28;;;6.04;100.00
58955;BME280;45815;52.334;5.024;2023-04-25T04:33:16;101270.38;;;5.95;100.00
58955;BME280;45815;52.334;5.024;2023-04-25T04:35:45;101265.72;;;5.89;100.00
58955;BME280;45815;52.334;5.024;2023-04-25T04:38:12;101259.72;;;5.90;100.00
58955;BME280;45815;52.334;5.024;2023-04-25T04:40:40;101266.66;;;5.90;100.00
58955;BME280;45815;52.334;5.024;2023-04-25T04:43:36;101268.84;;;5.81;100.00
58955;BME280;45815;52.334;5.024;2023-04-25T04:46:02;101264.56;;;5.83;100.00
58955;BME280;45815;52.334;5.024;2023-04-25T04:48:34;101271.44;;;5.81;100.00
58955;BME280;45815;52.334;5.024;2023-04-25T04:51:11;101269.50;;;5.77;100.00
58955;BME280;45815;52.334;5.024;2023-04-25T04:53:55;101275.13;;;5.86;100.00
58955;BME280;45815;52.334;5.024;2023-04-25T04:56:49;101279.97;;;5.96;100.00
58955;BME280;45815;52.334;5.024;2023-04-25T04:59:35;101281.88;;;6.00;100.00
58955;BME280;45815;52.334;5.024;2023-04-25T05:02:09;101288.47;;;6.11;100.00
58955;BME280;45815;52.334;5.024;2023-04-25T05:04:56;101277.13;;;6.11;100.00
58955;BME280;45815;52.334;5.024;2023-04-25T05:07:46;101283.91;;;6.27;100.00
58955;BME280;45815;52.334;5.024;2023-04-25T05:10:28;101290.38;;;6.35;100.00
58955;BME280;45815;52.334;5.024;2023-04-25T05:13:14;101298.44;;;6.41;100.00
58955;BME280;45815;52.334;5.024;2023-04-25T05:16:00;101303.53;;;6.38;100.00
58955;BME280;45815;52.334;5.024;2023-04-25T05:18:45;101296.75;;;6.42;100.00
58955;BME280;45815;52.334;5.024;2023-04-25T05:21:31;101307.41;;;6.48;100.00
58955;BME280;45815;52.334;5.024;2023-04-25T05:24:20;101308.78;;;6.59;100.00
58955;BME280;45815;52.334;5.024;2023-04-25T05:27:08;101297.47;;;6.59;100.00
58955;BME280;45815;52.334;5.024;2023-04-25T05:30:04;101314.47;;;6.70;100.00
58955;BME280;45815;52.334;5.024;2023-04-25T05:32:35;101314.66;;;6.74;100.00
58955;BME280;45815;52.334;5.024;2023-04-25T05:35:02;101310.44;;;6.78;100.00
58955;BME280;45815;52.334;5.024;2023-04-25T05:37:33;101315.78;;;6.81;100.00
58955;BME280;45815;52.334;5.024;2023-04-25T05:40:08;101321.25;;;6.87;100.00
58955;BME280;45815;52.334;5.024;2023-04-25T05:42:40;101318.91;;;6.93;100.00
58955;BME280;45815;52.334;5.024;2023-04-25T05:45:26;101308.91;;;6.83;100.00
58955;BME280;45815;52.334;5.024;2023-04-25T05:48:14;101337.31;;;6.96;100.00
58955;BME280;45815;52.334;5.024;2023-04-25T05:50:50;101338.25;;;6.98;100.00
58955;BME280;45815;52.334;5.024;2023-04-25T05:53:31;101344.16;;;6.94;100.00
58955;BME280;45815;52.334;5.024;2023-04-25T05:56:00;101347.66;;;6.95;100.00
58955;BME280;45815;52.334;5.024;2023-04-25T05:58:26;101352.00;;;6.94;100.00
58955;BME280;45815;52.334;5.024;2023-04-25T06:00:53;101352.88;;;6.95;100.00
58955;BME280;45815;52.334;5.024;2023-04-25T06:03:19;101350.44;;;6.98;100.00
58955;BME280;45815;52.334;5.024;2023-04-25T06:05:45;101356.66;;;7.02;100.00
58955;BME280;45815;52.334;5.024;2023-04-25T06:08:10;101364.75;;;7.08;100.00
58955;BME280;45815;52.334;5.024;2023-04-25T06:10:37;101361.56;;;7.15;100.00
58955;BME280;45815;52.334;5.024;2023-04-25T06:13:03;101355.38;;;7.13;100.00
58955;BME280;45815;52.334;5.024;2023-04-25T06:15:29;101361.88;;;7.23;100.00
58955;BME280;45815;52.334;5.024;2023-04-25T06:17:55;101347.53;;;7.13;100.00
58955;BME280;45815;52.334;5.024;2023-04-25T06:20:21;101366.19;;;7.22;100.00
58955;BME280;45815;52.334;5.024;2023-04-25T06:22:49;101362.91;;;7.26;100.00
58955;BME280;45815;52.334;5.024;2023-04-25T06:25:15;101371.09;;;7.35;100.00
58955;BME280;45815;52.334;5.024;2023-04-25T06:27:41;101366.84;;;7.37;100.00
58955;BME280;45815;52.334;5.024;2023-04-25T06:30:07;101358.03;;;7.35;100.00
58955;BME280;45815;52.334;5.024;2023-04-25T06:32:33;101371.50;;;7.46;100.00
58955;BME280;45815;52.334;5.024;2023-04-25T06:35:00;101368.38;;;7.55;100.00
58955;BME280;45815;52.334;5.024;2023-04-25T06:37:26;101379.31;;;7.67;100.00
58955;BME280;45815;52.334;5.024;2023-04-25T06:39:51;101387.28;;;7.70;100.00
58955;BME280;45815;52.334;5.024;2023-04-25T06:42:17;101378.97;;;7.80;100.00
58955;BME280;45815;52.334;5.024;2023-04-25T06:44:51;101387.78;;;7.82;100.00
58955;BME280;45815;52.334;5.024;2023-04-25T06:47:18;101382.28;;;7.76;100.00
58955;BME280;45815;52.334;5.024;2023-04-25T06:49:43;101392.53;;;7.70;100.00
58955;BME280;45815;52.334;5.024;2023-04-25T06:52:09;101394.66;;;7.80;100.00
58955;BME280;45815;52.334;5.024;2023-04-25T06:54:36;101392.41;;;7.90;100.00
58955;BME280;45815;52.334;5.024;2023-04-25T06:57:27;101396.16;;;7.96;100.00
58955;BME280;45815;52.334;5.024;2023-04-25T06:59:55;101400.81;;;8.05;100.00
58955;BME280;45815;52.334;5.024;2023-04-25T07:02:20;101402.63;;;8.06;100.00
58955;BME280;45815;52.334;5.024;2023-04-25T07:04:48;101397.59;;;8.12;100.00
58955;BME280;45815;52.334;5.024;2023-04-25T07:07:13;101397.78;;;8.17;100.00
58955;BME280;45815;52.334;5.024;2023-04-25T07:09:45;101405.09;;;8.25;100.00
58955;BME280;45815;52.334;5.024;2023-04-25T07:12:11;101408.31;;;8.18;100.00
58955;BME280;45815;52.334;5.024;2023-04-25T07:14:37;101394.16;;;8.13;100.00
58955;BME280;45815;52.334;5.024;2023-04-25T07:17:02;101407.59;;;8.22;100.00
58955;BME280;45815;52.334;5.024;2023-04-25T07:19:30;101417.19;;;8.23;100.00
58955;BME280;45815;52.334;5.024;2023-04-25T07:21:58;101413.97;;;8.31;100.00
58955;BME280;45815;52.334;5.024;2023-04-25T07:24:25;101406.50;;;8.40;100.00
58955;BME280;45815;52.334;5.024;2023-04-25T07:26:52;101414.09;;;8.56;100.00
58955;BME280;45815;52.334;5.024;2023-04-25T07:29:28;101410.03;;;8.64;100.00
58955;BME280;45815;52.334;5.024;2023-04-25T07:31:53;101410.03;;;8.64;100.00
58955;BME280;45815;52.334;5.024;2023-04-25T07:34:20;101422.44;;;8.70;100.00
58955;BME280;45815;52.334;5.024;2023-04-25T07:36:45;101424.97;;;8.67;100.00
58955;BME280;45815;52.334;5.024;2023-04-25T07:39:11;101434.66;;;8.70;100.00
58955;BME280;45815;52.334;5.024;2023-04-25T07:41:37;101443.72;;;8.55;100.00
58955;BME280;45815;52.334;5.024;2023-04-25T07:44:02;101437.09;;;8.65;100.00
58955;BME280;45815;52.334;5.024;2023-04-25T07:46:29;101434.75;;;8.73;100.00
58955;BME280;45815;52.334;5.024;2023-04-25T07:48:55;101435.44;;;8.67;100.00
58955;BME280;45815;52.334;5.024;2023-04-25T07:51:20;101439.97;;;8.73;100.00
58955;BME280;45815;52.334;5.024;2023-04-25T07:53:48;101440.59;;;8.65;100.00
58955;BME280;45815;52.334;5.024;2023-04-25T07:56:15;101450.28;;;8.92;100.00
58955;BME280;45815;52.334;5.024;2023-04-25T07:58:43;101454.91;;;8.99;100.00
58955;BME280;45815;52.334;5.024;2023-04-25T08:01:11;101460.47;;;9.08;100.00
58955;BME280;45815;52.334;5.024;2023-04-25T08:03:45;101446.59;;;9.11;100.00
58955;BME280;45815;52.334;5.024;2023-04-25T08:06:18;101455.50;;;9.16;100.00
58955;BME280;45815;52.334;5.024;2023-04-25T08:08:53;101459.31;;;9.26;100.00
58955;BME280;45815;52.334;5.024;2023-04-25T08:11:21;101462.00;;;9.27;100.00
58955;BME280;45815;52.334;5.024;2023-04-25T08:13:47;101465.41;;;9.25;100.00
58955;BME280;45815;52.334;5.024;2023-04-25T08:16:12;101474.00;;;9.46;100.00
58955;BME280;45815;52.334;5.024;2023-04-25T08:18:38;101473.53;;;9.60;100.00
58955;BME280;45815;52.334;5.024;2023-04-25T08:21:03;101475.53;;;9.67;100.00
58955;BME280;45815;52.334;5.024;2023-04-25T08:23:29;101477.47;;;9.72;100.00
58955;BME280;45815;52.334;5.024;2023-04-25T08:26:03;101487.69;;;9.92;100.00
58955;BME280;45815;52.334;5.024;2023-04-25T08:28:31;101481.00;;;10.02;100.00
58955;BME280;45815;52.334;5.024;2023-04-25T08:30:59;101488.28;;;10.38;100.00
58955;BME280;45815;52.334;5.024;2023-04-25T08:33:30;101488.44;;;10.44;100.00
58955;BME280;45815;52.334;5.024;2023-04-25T08:36:16;101490.66;;;10.89;100.00
58955;BME280;45815;52.334;5.024;2023-04-25T08:38:42;101494.69;;;11.09;100.00
58955;BME280;45815;52.334;5.024;2023-04-25T08:41:11;101495.84;;;11.19;100.00
58955;BME280;45815;52.334;5.024;2023-04-25T08:43:37;101498.19;;;11.08;100.00
58955;BME280;45815;52.334;5.024;2023-04-25T08:46:03;101504.47;;;10.82;100.00
58955;BME280;45815;52.334;5.024;2023-04-25T08:48:53;101519.00;;;10.70;100.00
58955;BME280;45815;52.334;5.024;2023-04-25T08:51:22;101515.16;;;10.59;100.00
58955;BME280;45815;52.334;5.024;2023-04-25T08:53:52;101531.97;;;10.35;100.00
58955;BME280;45815;52.334;5.024;2023-04-25T08:56:18;101539.06;;;10.12;100.00
58955;BME280;45815;52.334;5.024;2023-04-25T08:58:48;101540.28;;;9.97;100.00
58955;BME280;45815;52.334;5.024;2023-04-25T09:01:14;101537.53;;;9.92;100.00
58955;BME280;45815;52.334;5.024;2023-04-25T09:03:47;101544.34;;;9.87;100.00
58955;BME280;45815;52.334;5.024;2023-04-25T09:06:13;101536.09;;;9.49;100.00
58955;BME280;45815;52.334;5.024;2023-04-25T09:08:41;101560.78;;;9.81;100.00
58955;BME280;45815;52.334;5.024;2023-04-25T09:11:07;101553.53;;;10.00;100.00
58955;BME280;45815;52.334;5.024;2023-04-25T09:13:32;101562.13;;;9.96;100.00
58955;BME280;45815;52.334;5.024;2023-04-25T09:16:17;101573.97;;;10.10;100.00
58955;BME280;45815;52.334;5.024;2023-04-25T09:19:06;101572.88;;;10.03;100.00
58955;BME280;45815;52.334;5.024;2023-04-25T09:21:34;101568.22;;;10.22;100.00
58955;BME280;45815;52.334;5.024;2023-04-25T09:24:00;101572.91;;;10.30;100.00
58955;BME280;45815;52.334;5.024;2023-04-25T09:26:25;101567.59;;;10.29;100.00
58955;BME280;45815;52.334;5.024;2023-04-25T09:29:05;101570.09;;;10.53;100.00
58955;BME280;45815;52.334;5.024;2023-04-25T09:31:33;101567.09;;;10.69;100.00
58955;BME280;45815;52.334;5.024;2023-04-25T09:34:00;101567.91;;;10.97;100.00
58955;BME280;45815;52.334;5.024;2023-04-25T09:36:27;101576.38;;;10.87;100.00
58955;BME280;45815;52.334;5.024;2023-04-25T09:39:22;101572.75;;;11.13;100.00
58955;BME280;45815;52.334;5.024;2023-04-25T09:42:00;101578.66;;;11.36;100.00
58955;BME280;45815;52.334;5.024;2023-04-25T09:44:25;101575.25;;;11.72;100.00
58955;BME280;45815;52.334;5.024;2023-04-25T09:46:51;101574.72;;;11.86;100.00
58955;BME280;45815;52.334;5.024;2023-04-25T09:49:23;101561.47;;;12.16;100.00
58955;BME280;45815;52.334;5.024;2023-04-25T09:51:59;101583.94;;;12.77;100.00
58955;BME280;45815;52.334;5.024;2023-04-25T09:54:30;101595.34;;;13.19;100.00
58955;BME280;45815;52.334;5.024;2023-04-25T09:59:38;101588.34;;;13.63;98.27
58955;BME280;45815;52.334;5.024;2023-04-25T10:02:07;101588.34;;;13.63;94.31
58955;BME280;45815;52.334;5.024;2023-04-25T10:04:36;101593.03;;;13.81;89.35
58955;BME280;45815;52.334;5.024;2023-04-25T10:07:18;101581.72;;;13.87;95.43
58955;BME280;45815;52.334;5.024;2023-04-25T10:09:47;101598.28;;;13.77;90.30
58955;BME280;45815;52.334;5.024;2023-04-25T10:12:13;101603.59;;;13.80;91.59
58955;BME280;45815;52.334;5.024;2023-04-25T10:14:40;101619.38;;;13.78;97.39
58955;BME280;45815;52.334;5.024;2023-04-25T10:17:05;101620.59;;;13.07;100.00
58955;BME280;45815;52.334;5.024;2023-04-25T10:19:31;101629.56;;;12.38;100.00
58955;BME280;45815;52.334;5.024;2023-04-25T10:22:07;101630.44;;;11.39;100.00
58955;BME280;45815;52.334;5.024;2023-04-25T10:24:35;101641.56;;;11.00;100.00
58955;BME280;45815;52.334;5.024;2023-04-25T10:27:01;101639.66;;;10.66;100.00
58955;BME280;45815;52.334;5.024;2023-04-25T10:29:27;101652.91;;;10.43;100.00
58955;BME280;45815;52.334;5.024;2023-04-25T10:31:53;101658.13;;;10.16;100.00
58955;BME280;45815;52.334;5.024;2023-04-25T10:34:19;101654.56;;;10.14;100.00
58955;BME280;45815;52.334;5.024;2023-04-25T10:36:52;101647.81;;;9.97;100.00
58955;BME280;45815;52.334;5.024;2023-04-25T10:39:25;101632.22;;;10.00;100.00
58955;BME280;45815;52.334;5.024;2023-04-25T10:41:56;101639.16;;;9.99;100.00
58955;BME280;45815;52.334;5.024;2023-04-25T10:44:22;101642.16;;;10.10;100.00
58955;BME280;45815;52.334;5.024;2023-04-25T10:46:48;101641.91;;;10.28;100.00
58955;BME280;45815;52.334;5.024;2023-04-25T10:49:29;101641.63;;;10.73;100.00
58955;BME280;45815;52.334;5.024;2023-04-25T10:54:42;101628.50;;;11.64;100.00
58955;BME280;45815;52.334;5.024;2023-04-25T11:00:07;101617.81;;;12.24;100.00
58955;BME280;45815;52.334;5.024;2023-04-25T11:02:51;101628.44;;;12.65;95.87
58955;BME280;45815;52.334;5.024;2023-04-25T11:05:22;101664.44;;;13.04;100.00
58955;BME280;45815;52.334;5.024;2023-04-25T11:07:53;101675.34;;;12.10;100.00
58955;BME280;45815;52.334;5.024;2023-04-25T11:10:40;101667.84;;;11.30;100.00
58955;BME280;45815;52.334;5.024;2023-04-25T11:13:06;101667.38;;;10.85;100.00
58955;BME280;45815;52.334;5.024;2023-04-25T11:15:31;101657.25;;;10.17;100.00
58955;BME280;45815;52.334;5.024;2023-04-25T11:17:57;101664.09;;;9.86;100.00
58955;BME280;45815;52.334;5.024;2023-04-25T11:20:25;101662.91;;;9.78;100.00
58955;BME280;45815;52.334;5.024;2023-04-25T11:22:51;101665.03;;;9.88;100.00
58955;BME280;45815;52.334;5.024;2023-04-25T11:25:16;101658.69;;;10.07;100.00
58955;BME280;45815;52.334;5.024;2023-04-25T11:27:57;101645.03;;;10.43;100.00
58955;BME280;45815;52.334;5.024;2023-04-25T11:30:25;101654.00;;;11.06;100.00
58955;BME280;45815;52.334;5.024;2023-04-25T11:32:51;101656.50;;;11.63;100.00
58955;BME280;45815;52.334;5.024;2023-04-25T11:35:18;101646.09;;;11.98;100.00
58955;BME280;45815;52.334;5.024;2023-04-25T11:37:43;101651.09;;;12.58;100.00
58955;BME280;45815;52.334;5.024;2023-04-25T11:40:10;101651.19;;;13.01;100.00
58955;BME280;45815;52.334;5.024;2023-04-25T11:42:44;101651.47;;;13.13;95.56
58955;BME280;45815;52.334;5.024;2023-04-25T11:45:10;101653.50;;;13.67;95.32
58955;BME280;45815;52.334;5.024;2023-04-25T11:47:37;101653.91;;;13.89;91.07
58955;BME280;45815;52.334;5.024;2023-04-25T11:50:04;101654.06;;;13.98;87.23
58955;BME280;45815;52.334;5.024;2023-04-25T11:52:39;101647.75;;;14.40;88.14
58955;BME280;45815;52.334;5.024;2023-04-25T11:57:41;101657.59;;;15.10;86.05
58955;BME280;45815;52.334;5.024;2023-04-25T12:00:15;101657.47;;;15.01;79.03
58955;BME280;45815;52.334;5.024;2023-04-25T12:02:44;101643.91;;;15.41;84.91
58955;BME280;45815;52.334;5.024;2023-04-25T12:05:11;101653.00;;;15.65;84.81
58955;BME280;45815;52.334;5.024;2023-04-25T12:07:37;101657.59;;;15.78;83.09
58955;BME280;45815;52.334;5.024;2023-04-25T12:10:10;101668.13;;;15.04;79.50
58955;BME280;45815;52.334;5.024;2023-04-25T12:12:37;101665.16;;;14.29;76.49
58955;BME280;45815;52.334;5.024;2023-04-25T12:15:11;101665.50;;;13.53;73.75
58955;BME280;45815;52.334;5.024;2023-04-25T12:17:38;101667.06;;;13.42;81.76
58955;BME280;45815;52.334;5.024;2023-04-25T12:20:08;101674.03;;;13.84;85.02
58955;BME280;45815;52.334;5.024;2023-04-25T12:22:34;101679.97;;;13.72;84.99
58955;BME280;45815;52.334;5.024;2023-04-25T12:24:59;101662.13;;;14.06;85.39
58955;BME280;45815;52.334;5.024;2023-04-25T12:27:25;101671.00;;;14.63;83.02
58955;BME280;45815;52.334;5.024;2023-04-25T12:29:53;101667.28;;;14.50;78.48
58955;BME280;45815;52.334;5.024;2023-04-25T12:32:19;101670.25;;;14.70;80.57
58955;BME280;45815;52.334;5.024;2023-04-25T12:34:45;101670.72;;;15.02;77.27
58955;BME280;45815;52.334;5.024;2023-04-25T12:37:10;101669.88;;;15.05;76.11
58955;BME280;45815;52.334;5.024;2023-04-25T12:39:36;101680.28;;;14.92;79.88
58955;BME280;45815;52.334;5.024;2023-04-25T12:42:01;101679.91;;;14.68;77.08
58955;BME280;45815;52.334;5.024;2023-04-25T12:44:28;101678.63;;;15.01;77.84
58955;BME280;45815;52.334;5.024;2023-04-25T12:46:53;101681.59;;;14.63;75.81
58955;BME280;45815;52.334;5.024;2023-04-25T12:49:20;101692.31;;;14.72;78.29
58955;BME280;45815;52.334;5.024;2023-04-25T12:51:45;101688.69;;;14.15;77.29
58955;BME280;45815;52.334;5.024;2023-04-25T12:54:12;101685.59;;;14.41;79.14
58955;BME280;45815;52.334;5.024;2023-04-25T12:56:37;101694.16;;;14.79;75.05
58955;BME280;45815;52.334;5.024;2023-04-25T12:59:03;101683.91;;;15.01;75.44
58955;BME280;45815;52.334;5.024;2023-04-25T13:01:28;101692.69;;;14.96;74.99
58955;BME280;45815;52.334;5.024;2023-04-25T13:03:54;101683.13;;;14.51;74.55
58955;BME280;45815;52.334;5.024;2023-04-25T13:06:21;101684.47;;;14.80;79.19
58955;BME280;45815;52.334;5.024;2023-04-25T13:08:46;101685.72;;;15.02;74.90